sensor_id;sensor_type;location;lat;lon;timestamp;P1;durP1;ratioP1;P2;durP2;ratioP2
60169;SDS011;46042;49.444;6.862;2023-05-08T00:02:11;3.05;;;2.17;;
60169;SDS011;46042;49.444;6.862;2023-05-08T00:04:39;4.00;;;2.60;;
60169;SDS011;46042;49.444;6.862;2023-05-08T00:07:05;3.95;;;2.60;;
60169;SDS011;46042;49.444;6.862;2023-05-08T00:09:32;3.35;;;2.65;;
60169;SDS011;46042;49.444;6.862;2023-05-08T00:11:59;3.97;;;2.60;;
60169;SDS011;46042;49.444;6.862;2023-05-08T00:14:25;3.80;;;2.40;;
60169;SDS011;46042;49.444;6.862;2023-05-08T00:16:52;4.82;;;2.97;;
60169;SDS011;46042;49.444;6.862;2023-05-08T00:19:19;5.65;;;2.47;;
60169;SDS011;46042;49.444;6.862;2023-05-08T00:21:45;3.38;;;2.40;;
60169;SDS011;46042;49.444;6.862;2023-05-08T00:24:12;3.97;;;2.70;;
60169;SDS011;46042;49.444;6.862;2023-05-08T00:26:39;3.78;;;2.88;;
60169;SDS011;46042;49.444;6.862;2023-05-08T00:29:07;5.22;;;2.40;;
60169;SDS011;46042;49.444;6.862;2023-05-08T00:31:33;3.40;;;2.65;;
60169;SDS011;46042;49.444;6.862;2023-05-08T00:34:00;3.60;;;2.30;;
60169;SDS011;46042;49.444;6.862;2023-05-08T00:36:27;5.50;;;2.30;;
60169;SDS011;46042;49.444;6.862;2023-05-08T00:38:53;5.22;;;2.30;;
60169;SDS011;46042;49.444;6.862;2023-05-08T00:41:20;3.15;;;2.38;;
60169;SDS011;46042;49.444;6.862;2023-05-08T00:43:47;3.47;;;2.40;;
60169;SDS011;46042;49.444;6.862;2023-05-08T00:46:13;4.25;;;2.10;;
60169;SDS011;46042;49.444;6.862;2023-05-08T00:48:41;5.10;;;2.40;;
60169;SDS011;46042;49.444;6.862;2023-05-08T00:51:08;3.60;;;2.80;;
60169;SDS011;46042;49.444;6.862;2023-05-08T00:53:38;3.92;;;2.40;;
60169;SDS011;46042;49.444;6.862;2023-05-08T00:56:09;3.15;;;2.30;;
60169;SDS011;46042;49.444;6.862;2023-05-08T00:58:38;8.10;;;2.40;;
60169;SDS011;46042;49.444;6.862;2023-05-08T01:01:06;3.22;;;2.17;;
60169;SDS011;46042;49.444;6.862;2023-05-08T01:03:34;3.90;;;2.30;;
60169;SDS011;46042;49.444;6.862;2023-05-08T01:06:02;3.15;;;2.45;;
60169;SDS011;46042;49.444;6.862;2023-05-08T01:08:29;4.38;;;2.90;;
60169;SDS011;46042;49.444;6.862;2023-05-08T01:30:38;5.13;;;2.90;;
60169;SDS011;46042;49.444;6.862;2023-05-08T01:36:17;4.32;;;2.60;;
60169;SDS011;46042;49.444;6.862;2023-05-08T01:39:11;5.25;;;3.00;;
60169;SDS011;46042;49.444;6.862;2023-05-08T01:42:45;2.95;;;2.53;;
60169;SDS011;46042;49.444;6.862;2023-05-08T01:47:50;9.15;;;2.60;;
60169;SDS011;46042;49.444;6.862;2023-05-08T01:50:30;3.38;;;2.50;;
60169;SDS011;46042;49.444;6.862;2023-05-08T01:53:09;4.88;;;2.80;;
60169;SDS011;46042;49.444;6.862;2023-05-08T01:55:43;5.90;;;2.45;;
60169;SDS011;46042;49.444;6.862;2023-05-08T01:58:13;4.63;;;2.42;;
60169;SDS011;46042;49.444;6.862;2023-05-08T02:00:42;3.53;;;2.60;;
60169;SDS011;46042;49.444;6.862;2023-05-08T02:03:10;4.43;;;2.70;;
60169;SDS011;46042;49.444;6.862;2023-05-08T02:05:40;3.15;;;2.55;;
60169;SDS011;46042;49.444;6.862;2023-05-08T02:08:08;4.15;;;3.10;;
60169;SDS011;46042;49.444;6.862;2023-05-08T02:10:38;3.65;;;2.85;;
60169;SDS011;46042;49.444;6.862;2023-05-08T02:13:06;4.45;;;2.83;;
60169;SDS011;46042;49.444;6.862;2023-05-08T02:15:34;6.32;;;3.05;;
60169;SDS011;46042;49.444;6.862;2023-05-08T02:18:03;2.85;;;2.55;;
60169;SDS011;46042;49.444;6.862;2023-05-08T02:20:32;3.53;;;2.78;;
60169;SDS011;46042;49.444;6.862;2023-05-08T02:22:59;4.18;;;2.60;;
60169;SDS011;46042;49.444;6.862;2023-05-08T02:25:27;3.67;;;2.70;;
60169;SDS011;46042;49.444;6.862;2023-05-08T02:27:56;3.17;;;2.45;;
60169;SDS011;46042;49.444;6.862;2023-05-08T02:30:23;8.10;;;3.00;;
60169;SDS011;46042;49.444;6.862;2023-05-08T02:32:51;5.00;;;2.83;;
60169;SDS011;46042;49.444;6.862;2023-05-08T02:35:24;9.57;;;3.22;;
60169;SDS011;46042;49.444;6.862;2023-05-08T02:37:54;5.03;;;3.28;;
60169;SDS011;46042;49.444;6.862;2023-05-08T02:40:23;7.03;;;2.90;;
60169;SDS011;46042;49.444;6.862;2023-05-08T02:42:53;5.43;;;2.67;;
60169;SDS011;46042;49.444;6.862;2023-05-08T02:45:22;3.75;;;2.88;;
60169;SDS011;46042;49.444;6.862;2023-05-08T02:48:08;5.57;;;2.70;;
60169;SDS011;46042;49.444;6.862;2023-05-08T02:50:44;4.05;;;3.03;;
60169;SDS011;46042;49.444;6.862;2023-05-08T02:53:35;5.90;;;3.15;;
60169;SDS011;46042;49.444;6.862;2023-05-08T02:56:09;6.05;;;3.13;;
60169;SDS011;46042;49.444;6.862;2023-05-08T03:01:44;6.18;;;3.95;;
60169;SDS011;46042;49.444;6.862;2023-05-08T03:04:28;5.28;;;3.90;;
60169;SDS011;46042;49.444;6.862;2023-05-08T03:06:59;9.90;;;3.75;;
60169;SDS011;46042;49.444;6.862;2023-05-08T03:09:31;6.68;;;3.88;;
60169;SDS011;46042;49.444;6.862;2023-05-08T03:12:08;4.25;;;3.17;;
60169;SDS011;46042;49.444;6.862;2023-05-08T03:14:42;6.65;;;3.55;;
60169;SDS011;46042;49.444;6.862;2023-05-08T03:17:12;5.35;;;3.70;;
60169;SDS011;46042;49.444;6.862;2023-05-08T03:19:43;4.43;;;3.40;;
60169;SDS011;46042;49.444;6.862;2023-05-08T03:22:15;7.53;;;3.42;;
60169;SDS011;46042;49.444;6.862;2023-05-08T03:24:45;6.50;;;3.45;;
60169;SDS011;46042;49.444;6.862;2023-05-08T03:27:14;8.65;;;3.67;;
60169;SDS011;46042;49.444;6.862;2023-05-08T03:29:43;5.50;;;3.67;;
60169;SDS011;46042;49.444;6.862;2023-05-08T03:32:11;7.90;;;3.95;;
60169;SDS011;46042;49.444;6.862;2023-05-08T03:34:39;7.75;;;3.80;;
60169;SDS011;46042;49.444;6.862;2023-05-08T03:37:06;5.55;;;3.63;;
60169;SDS011;46042;49.444;6.862;2023-05-08T03:39:32;5.70;;;3.53;;
60169;SDS011;46042;49.444;6.862;2023-05-08T03:41:59;5.18;;;3.55;;
60169;SDS011;46042;49.444;6.862;2023-05-08T03:44:27;7.40;;;3.40;;
60169;SDS011;46042;49.444;6.862;2023-05-08T03:46:55;6.55;;;3.53;;
60169;SDS011;46042;49.444;6.862;2023-05-08T03:49:24;6.35;;;3.60;;
60169;SDS011;46042;49.444;6.862;2023-05-08T03:51:55;4.90;;;3.63;;
60169;SDS011;46042;49.444;6.862;2023-05-08T03:54:22;4.90;;;3.53;;
60169;SDS011;46042;49.444;6.862;2023-05-08T03:59:20;7.15;;;3.78;;
60169;SDS011;46042;49.444;6.862;2023-05-08T04:01:58;5.03;;;3.22;;
60169;SDS011;46042;49.444;6.862;2023-05-08T04:04:41;7.35;;;3.75;;
60169;SDS011;46042;49.444;6.862;2023-05-08T04:07:23;6.93;;;3.95;;
60169;SDS011;46042;49.444;6.862;2023-05-08T04:10:08;7.45;;;4.03;;
60169;SDS011;46042;49.444;6.862;2023-05-08T04:15:24;8.18;;;3.72;;
60169;SDS011;46042;49.444;6.862;2023-05-08T04:17:56;7.47;;;3.95;;
60169;SDS011;46042;49.444;6.862;2023-05-08T04:20:26;8.32;;;4.20;;
60169;SDS011;46042;49.444;6.862;2023-05-08T04:22:54;9.57;;;3.97;;
60169;SDS011;46042;49.444;6.862;2023-05-08T04:25:23;6.45;;;3.97;;
60169;SDS011;46042;49.444;6.862;2023-05-08T04:27:51;8.05;;;4.13;;
60169;SDS011;46042;49.444;6.862;2023-05-08T04:30:19;7.05;;;3.72;;
60169;SDS011;46042;49.444;6.862;2023-05-08T04:32:46;18.23;;;3.80;;
60169;SDS011;46042;49.444;6.862;2023-05-08T04:35:13;6.43;;;4.15;;
60169;SDS011;46042;49.444;6.862;2023-05-08T04:37:40;6.75;;;4.20;;
60169;SDS011;46042;49.444;6.862;2023-05-08T04:40:08;10.95;;;4.22;;
60169;SDS011;46042;49.444;6.862;2023-05-08T04:42:37;7.50;;;4.03;;
60169;SDS011;46042;49.444;6.862;2023-05-08T04:45:08;5.47;;;3.70;;
60169;SDS011;46042;49.444;6.862;2023-05-08T04:47:35;5.07;;;3.40;;
60169;SDS011;46042;49.444;6.862;2023-05-08T04:50:02;6.65;;;4.07;;
60169;SDS011;46042;49.444;6.862;2023-05-08T04:52:28;7.70;;;4.38;;
60169;SDS011;46042;49.444;6.862;2023-05-08T04:54:55;6.65;;;4.32;;
60169;SDS011;46042;49.444;6.862;2023-05-08T04:57:22;7.32;;;4.22;;
60169;SDS011;46042;49.444;6.862;2023-05-08T04:59:49;11.55;;;8.98;;
60169;SDS011;46042;49.444;6.862;2023-05-08T05:02:16;12.30;;;7.78;;
60169;SDS011;46042;49.444;6.862;2023-05-08T05:04:43;11.30;;;7.22;;
60169;SDS011;46042;49.444;6.862;2023-05-08T05:07:10;9.25;;;5.60;;
60169;SDS011;46042;49.444;6.862;2023-05-08T05:09:36;8.55;;;6.00;;
60169;SDS011;46042;49.444;6.862;2023-05-08T05:12:07;8.77;;;5.60;;
60169;SDS011;46042;49.444;6.862;2023-05-08T05:14:34;9.77;;;5.30;;
60169;SDS011;46042;49.444;6.862;2023-05-08T05:17:01;5.90;;;4.28;;
60169;SDS011;46042;49.444;6.862;2023-05-08T05:19:27;11.30;;;4.32;;
60169;SDS011;46042;49.444;6.862;2023-05-08T05:21:54;7.97;;;4.20;;
60169;SDS011;46042;49.444;6.862;2023-05-08T05:24:21;10.40;;;5.35;;
60169;SDS011;46042;49.444;6.862;2023-05-08T05:26:47;13.32;;;6.85;;
60169;SDS011;46042;49.444;6.862;2023-05-08T05:29:14;11.05;;;7.05;;
60169;SDS011;46042;49.444;6.862;2023-05-08T05:31:41;14.63;;;7.38;;
60169;SDS011;46042;49.444;6.862;2023-05-08T05:34:08;15.93;;;8.57;;
60169;SDS011;46042;49.444;6.862;2023-05-08T05:36:35;15.38;;;8.10;;
60169;SDS011;46042;49.444;6.862;2023-05-08T05:39:01;16.25;;;8.73;;
60169;SDS011;46042;49.444;6.862;2023-05-08T05:41:28;15.18;;;9.20;;
60169;SDS011;46042;49.444;6.862;2023-05-08T05:43:55;21.42;;;10.00;;
60169;SDS011;46042;49.444;6.862;2023-05-08T05:46:22;17.48;;;8.90;;
60169;SDS011;46042;49.444;6.862;2023-05-08T05:48:53;17.98;;;8.73;;
60169;SDS011;46042;49.444;6.862;2023-05-08T05:51:20;17.38;;;9.88;;
60169;SDS011;46042;49.444;6.862;2023-05-08T05:53:46;16.85;;;9.32;;
60169;SDS011;46042;49.444;6.862;2023-05-08T05:56:13;15.07;;;8.40;;
60169;SDS011;46042;49.444;6.862;2023-05-08T05:58:40;19.02;;;9.40;;
60169;SDS011;46042;49.444;6.862;2023-05-08T06:01:10;12.80;;;8.32;;
60169;SDS011;46042;49.444;6.862;2023-05-08T06:03:37;16.42;;;9.43;;
60169;SDS011;46042;49.444;6.862;2023-05-08T06:06:04;16.30;;;9.25;;
60169;SDS011;46042;49.444;6.862;2023-05-08T06:08:31;20.42;;;9.48;;
60169;SDS011;46042;49.444;6.862;2023-05-08T06:10:58;16.42;;;9.40;;
60169;SDS011;46042;49.444;6.862;2023-05-08T06:13:25;23.55;;;13.10;;
60169;SDS011;46042;49.444;6.862;2023-05-08T06:15:55;25.27;;;12.65;;
60169;SDS011;46042;49.444;6.862;2023-05-08T06:18:22;21.43;;;13.33;;
60169;SDS011;46042;49.444;6.862;2023-05-08T06:20:53;25.30;;;13.38;;
60169;SDS011;46042;49.444;6.862;2023-05-08T06:23:23;22.17;;;11.05;;
60169;SDS011;46042;49.444;6.862;2023-05-08T06:25:50;21.83;;;10.70;;
60169;SDS011;46042;49.444;6.862;2023-05-08T06:28:17;22.38;;;9.70;;
60169;SDS011;46042;49.444;6.862;2023-05-08T06:30:44;25.63;;;9.85;;
60169;SDS011;46042;49.444;6.862;2023-05-08T06:33:11;17.83;;;8.27;;
60169;SDS011;46042;49.444;6.862;2023-05-08T06:35:37;16.23;;;9.60;;
60169;SDS011;46042;49.444;6.862;2023-05-08T06:38:04;13.57;;;8.75;;
60169;SDS011;46042;49.444;6.862;2023-05-08T06:40:31;18.40;;;8.35;;
60169;SDS011;46042;49.444;6.862;2023-05-08T06:42:58;14.35;;;8.35;;
60169;SDS011;46042;49.444;6.862;2023-05-08T06:45:24;16.50;;;8.57;;
60169;SDS011;46042;49.444;6.862;2023-05-08T06:47:51;13.50;;;7.32;;
60169;SDS011;46042;49.444;6.862;2023-05-08T06:50:18;14.60;;;7.47;;
60169;SDS011;46042;49.444;6.862;2023-05-08T06:52:44;11.68;;;7.07;;
60169;SDS011;46042;49.444;6.862;2023-05-08T06:55:11;11.68;;;7.13;;
60169;SDS011;46042;49.444;6.862;2023-05-08T06:57:38;17.30;;;7.85;;
60169;SDS011;46042;49.444;6.862;2023-05-08T07:00:05;12.30;;;6.60;;
60169;SDS011;46042;49.444;6.862;2023-05-08T07:02:32;9.95;;;6.35;;
60169;SDS011;46042;49.444;6.862;2023-05-08T07:04:59;13.52;;;6.60;;
60169;SDS011;46042;49.444;6.862;2023-05-08T07:07:25;11.32;;;6.47;;
60169;SDS011;46042;49.444;6.862;2023-05-08T07:09:52;12.23;;;7.07;;
60169;SDS011;46042;49.444;6.862;2023-05-08T07:12:19;10.98;;;6.28;;
60169;SDS011;46042;49.444;6.862;2023-05-08T07:14:46;10.00;;;5.85;;
60169;SDS011;46042;49.444;6.862;2023-05-08T07:17:13;10.90;;;4.70;;
60169;SDS011;46042;49.444;6.862;2023-05-08T07:19:40;11.85;;;6.32;;
60169;SDS011;46042;49.444;6.862;2023-05-08T07:22:06;10.70;;;6.22;;
60169;SDS011;46042;49.444;6.862;2023-05-08T07:24:33;8.20;;;5.32;;
60169;SDS011;46042;49.444;6.862;2023-05-08T07:27:00;15.95;;;5.22;;
60169;SDS011;46042;49.444;6.862;2023-05-08T07:29:27;13.20;;;5.50;;
60169;SDS011;46042;49.444;6.862;2023-05-08T07:31:53;12.95;;;5.40;;
60169;SDS011;46042;49.444;6.862;2023-05-08T07:34:20;20.85;;;5.60;;
60169;SDS011;46042;49.444;6.862;2023-05-08T07:36:47;10.48;;;5.70;;
60169;SDS011;46042;49.444;6.862;2023-05-08T07:39:14;17.70;;;5.60;;
60169;SDS011;46042;49.444;6.862;2023-05-08T07:41:40;9.98;;;6.30;;
60169;SDS011;46042;49.444;6.862;2023-05-08T07:44:07;19.60;;;6.93;;
60169;SDS011;46042;49.444;6.862;2023-05-08T07:46:34;20.60;;;7.43;;
60169;SDS011;46042;49.444;6.862;2023-05-08T07:49:01;12.55;;;5.95;;
60169;SDS011;46042;49.444;6.862;2023-05-08T07:51:28;11.15;;;6.28;;
60169;SDS011;46042;49.444;6.862;2023-05-08T07:53:54;14.80;;;5.50;;
60169;SDS011;46042;49.444;6.862;2023-05-08T07:56:21;9.05;;;5.82;;
60169;SDS011;46042;49.444;6.862;2023-05-08T07:58:48;19.95;;;6.32;;
60169;SDS011;46042;49.444;6.862;2023-05-08T08:01:15;11.20;;;5.38;;
60169;SDS011;46042;49.444;6.862;2023-05-08T08:03:43;9.60;;;5.53;;
60169;SDS011;46042;49.444;6.862;2023-05-08T08:06:11;8.70;;;5.85;;
60169;SDS011;46042;49.444;6.862;2023-05-08T08:08:38;11.18;;;5.72;;
60169;SDS011;46042;49.444;6.862;2023-05-08T08:11:05;11.35;;;5.80;;
60169;SDS011;46042;49.444;6.862;2023-05-08T08:13:32;12.27;;;5.75;;
60169;SDS011;46042;49.444;6.862;2023-05-08T08:16:00;12.00;;;5.75;;
60169;SDS011;46042;49.444;6.862;2023-05-08T08:18:29;13.30;;;5.63;;
60169;SDS011;46042;49.444;6.862;2023-05-08T08:20:59;8.68;;;5.82;;
60169;SDS011;46042;49.444;6.862;2023-05-08T08:23:26;13.38;;;5.93;;
60169;SDS011;46042;49.444;6.862;2023-05-08T08:25:52;10.77;;;5.95;;
60169;SDS011;46042;49.444;6.862;2023-05-08T08:28:19;10.65;;;6.75;;
60169;SDS011;46042;49.444;6.862;2023-05-08T08:30:46;19.90;;;7.45;;
60169;SDS011;46042;49.444;6.862;2023-05-08T08:33:12;12.10;;;6.13;;
60169;SDS011;46042;49.444;6.862;2023-05-08T08:35:41;12.73;;;6.25;;
60169;SDS011;46042;49.444;6.862;2023-05-08T08:38:08;10.48;;;5.50;;
60169;SDS011;46042;49.444;6.862;2023-05-08T08:40:41;7.57;;;5.05;;
60169;SDS011;46042;49.444;6.862;2023-05-08T08:43:08;8.70;;;5.65;;
60169;SDS011;46042;49.444;6.862;2023-05-08T08:45:35;8.07;;;5.05;;
60169;SDS011;46042;49.444;6.862;2023-05-08T08:48:02;11.35;;;7.20;;
60169;SDS011;46042;49.444;6.862;2023-05-08T08:50:30;14.18;;;6.85;;
60169;SDS011;46042;49.444;6.862;2023-05-08T08:53:13;12.95;;;7.90;;
60169;SDS011;46042;49.444;6.862;2023-05-08T08:55:43;11.80;;;7.13;;
60169;SDS011;46042;49.444;6.862;2023-05-08T09:00:57;11.30;;;6.60;;
60169;SDS011;46042;49.444;6.862;2023-05-08T09:03:26;8.27;;;5.63;;
60169;SDS011;46042;49.444;6.862;2023-05-08T09:05:52;11.85;;;5.35;;
60169;SDS011;46042;49.444;6.862;2023-05-08T09:08:20;8.48;;;4.88;;
60169;SDS011;46042;49.444;6.862;2023-05-08T09:10:47;12.32;;;5.43;;
60169;SDS011;46042;49.444;6.862;2023-05-08T09:13:14;19.65;;;5.88;;
60169;SDS011;46042;49.444;6.862;2023-05-08T09:15:43;12.82;;;4.80;;
60169;SDS011;46042;49.444;6.862;2023-05-08T09:18:09;13.35;;;5.32;;
60169;SDS011;46042;49.444;6.862;2023-05-08T09:20:36;11.02;;;5.72;;
60169;SDS011;46042;49.444;6.862;2023-05-08T09:23:05;9.07;;;4.63;;
60169;SDS011;46042;49.444;6.862;2023-05-08T09:28:16;10.75;;;5.25;;
60169;SDS011;46042;49.444;6.862;2023-05-08T09:31:02;7.30;;;4.72;;
60169;SDS011;46042;49.444;6.862;2023-05-08T09:33:29;11.48;;;5.45;;
60169;SDS011;46042;49.444;6.862;2023-05-08T09:35:56;8.63;;;4.85;;
60169;SDS011;46042;49.444;6.862;2023-05-08T09:43:37;9.50;;;5.03;;
60169;SDS011;46042;49.444;6.862;2023-05-08T09:46:22;8.82;;;5.15;;
60169;SDS011;46042;49.444;6.862;2023-05-08T09:48:52;14.70;;;6.55;;
60169;SDS011;46042;49.444;6.862;2023-05-08T09:51:20;13.32;;;5.28;;
60169;SDS011;46042;49.444;6.862;2023-05-08T09:53:51;8.32;;;5.63;;
60169;SDS011;46042;49.444;6.862;2023-05-08T09:56:30;9.52;;;5.55;;
60169;SDS011;46042;49.444;6.862;2023-05-08T09:59:05;9.45;;;5.82;;
60169;SDS011;46042;49.444;6.862;2023-05-08T10:01:48;9.05;;;5.40;;
60169;SDS011;46042;49.444;6.862;2023-05-08T10:04:16;21.63;;;6.78;;
60169;SDS011;46042;49.444;6.862;2023-05-08T10:06:42;11.93;;;6.60;;
60169;SDS011;46042;49.444;6.862;2023-05-08T10:09:13;12.25;;;7.15;;
60169;SDS011;46042;49.444;6.862;2023-05-08T10:11:40;14.63;;;7.00;;
60169;SDS011;46042;49.444;6.862;2023-05-08T10:14:17;11.98;;;6.40;;
60169;SDS011;46042;49.444;6.862;2023-05-08T10:16:46;23.83;;;7.18;;
60169;SDS011;46042;49.444;6.862;2023-05-08T10:19:18;11.23;;;6.22;;
60169;SDS011;46042;49.444;6.862;2023-05-08T10:21:46;8.65;;;6.22;;
60169;SDS011;46042;49.444;6.862;2023-05-08T10:24:35;9.32;;;6.45;;
60169;SDS011;46042;49.444;6.862;2023-05-08T10:27:16;12.10;;;6.65;;
60169;SDS011;46042;49.444;6.862;2023-05-08T10:29:54;12.00;;;6.10;;
60169;SDS011;46042;49.444;6.862;2023-05-08T10:32:25;10.93;;;6.47;;
60169;SDS011;46042;49.444;6.862;2023-05-08T10:34:55;16.85;;;7.70;;
60169;SDS011;46042;49.444;6.862;2023-05-08T10:37:26;15.60;;;9.15;;
60169;SDS011;46042;49.444;6.862;2023-05-08T10:39:56;11.77;;;7.63;;
60169;SDS011;46042;49.444;6.862;2023-05-08T10:42:24;12.60;;;8.20;;
60169;SDS011;46042;49.444;6.862;2023-05-08T10:44:51;15.07;;;8.60;;
60169;SDS011;46042;49.444;6.862;2023-05-08T10:50:15;15.43;;;8.90;;
60169;SDS011;46042;49.444;6.862;2023-05-08T10:53:10;15.00;;;8.43;;
60169;SDS011;46042;49.444;6.862;2023-05-08T10:55:44;13.85;;;8.68;;
60169;SDS011;46042;49.444;6.862;2023-05-08T10:58:13;13.80;;;8.57;;
60169;SDS011;46042;49.444;6.862;2023-05-08T11:03:23;15.30;;;8.73;;
60169;SDS011;46042;49.444;6.862;2023-05-08T11:05:59;13.95;;;8.65;;
60169;SDS011;46042;49.444;6.862;2023-05-08T11:08:27;11.85;;;7.40;;
60169;SDS011;46042;49.444;6.862;2023-05-08T11:13:28;11.15;;;6.43;;
60169;SDS011;46042;49.444;6.862;2023-05-08T11:15:58;11.57;;;6.15;;
60169;SDS011;46042;49.444;6.862;2023-05-08T11:18:26;8.07;;;5.32;;
60169;SDS011;46042;49.444;6.862;2023-05-08T11:21:14;7.40;;;5.18;;
60169;SDS011;46042;49.444;6.862;2023-05-08T11:23:50;10.30;;;6.13;;
60169;SDS011;46042;49.444;6.862;2023-05-08T11:26:22;8.27;;;5.75;;
60169;SDS011;46042;49.444;6.862;2023-05-08T11:29:07;9.18;;;5.65;;
60169;SDS011;46042;49.444;6.862;2023-05-08T11:31:51;10.10;;;5.30;;
60169;SDS011;46042;49.444;6.862;2023-05-08T11:37:08;9.43;;;5.85;;
60169;SDS011;46042;49.444;6.862;2023-05-08T11:39:35;9.65;;;6.88;;
60169;SDS011;46042;49.444;6.862;2023-05-08T11:45:12;8.98;;;6.00;;
60169;SDS011;46042;49.444;6.862;2023-05-08T11:47:41;15.20;;;5.90;;
60169;SDS011;46042;49.444;6.862;2023-05-08T11:50:10;8.90;;;5.50;;
60169;SDS011;46042;49.444;6.862;2023-05-08T11:52:39;9.68;;;5.80;;
60169;SDS011;46042;49.444;6.862;2023-05-08T11:55:10;15.50;;;5.80;;
60169;SDS011;46042;49.444;6.862;2023-05-08T11:57:38;8.73;;;5.88;;
60169;SDS011;46042;49.444;6.862;2023-05-08T12:00:08;8.75;;;6.05;;
60169;SDS011;46042;49.444;6.862;2023-05-08T12:02:40;10.13;;;6.45;;
60169;SDS011;46042;49.444;6.862;2023-05-08T12:05:09;8.60;;;5.95;;
60169;SDS011;46042;49.444;6.862;2023-05-08T12:07:46;9.32;;;6.50;;
60169;SDS011;46042;49.444;6.862;2023-05-08T12:10:13;7.90;;;6.20;;
60169;SDS011;46042;49.444;6.862;2023-05-08T12:12:42;11.43;;;6.28;;
60169;SDS011;46042;49.444;6.862;2023-05-08T12:15:10;9.35;;;6.07;;
60169;SDS011;46042;49.444;6.862;2023-05-08T12:17:41;8.35;;;5.60;;
60169;SDS011;46042;49.444;6.862;2023-05-08T12:20:17;8.07;;;5.45;;
60169;SDS011;46042;49.444;6.862;2023-05-08T12:22:51;8.38;;;4.93;;
60169;SDS011;46042;49.444;6.862;2023-05-08T12:25:18;7.97;;;5.72;;
60169;SDS011;46042;49.444;6.862;2023-05-08T12:27:45;10.43;;;5.32;;
60169;SDS011;46042;49.444;6.862;2023-05-08T12:30:12;12.55;;;5.00;;
60169;SDS011;46042;49.444;6.862;2023-05-08T12:32:40;8.23;;;5.32;;
60169;SDS011;46042;49.444;6.862;2023-05-08T12:35:09;6.57;;;5.20;;
60169;SDS011;46042;49.444;6.862;2023-05-08T12:37:37;7.82;;;5.15;;
60169;SDS011;46042;49.444;6.862;2023-05-08T12:40:04;9.02;;;5.28;;
60169;SDS011;46042;49.444;6.862;2023-05-08T12:42:44;8.00;;;5.30;;
60169;SDS011;46042;49.444;6.862;2023-05-08T12:45:20;7.90;;;4.50;;
60169;SDS011;46042;49.444;6.862;2023-05-08T12:47:51;9.40;;;5.63;;
60169;SDS011;46042;49.444;6.862;2023-05-08T12:50:23;7.40;;;5.30;;
60169;SDS011;46042;49.444;6.862;2023-05-08T12:52:51;8.00;;;4.88;;
60169;SDS011;46042;49.444;6.862;2023-05-08T12:55:19;7.38;;;4.82;;
60169;SDS011;46042;49.444;6.862;2023-05-08T12:58:00;9.48;;;6.10;;
60169;SDS011;46042;49.444;6.862;2023-05-08T13:00:40;8.15;;;5.25;;
60169;SDS011;46042;49.444;6.862;2023-05-08T13:03:11;11.00;;;5.60;;
60169;SDS011;46042;49.444;6.862;2023-05-08T13:05:40;8.18;;;5.40;;
60169;SDS011;46042;49.444;6.862;2023-05-08T13:08:11;8.57;;;5.03;;
60169;SDS011;46042;49.444;6.862;2023-05-08T13:10:51;6.38;;;4.47;;
60169;SDS011;46042;49.444;6.862;2023-05-08T13:13:19;8.27;;;4.43;;
60169;SDS011;46042;49.444;6.862;2023-05-08T13:15:47;8.23;;;4.40;;
60169;SDS011;46042;49.444;6.862;2023-05-08T13:18:15;6.57;;;4.40;;
60169;SDS011;46042;49.444;6.862;2023-05-08T13:20:43;5.93;;;4.35;;
60169;SDS011;46042;49.444;6.862;2023-05-08T13:23:10;6.07;;;4.50;;
60169;SDS011;46042;49.444;6.862;2023-05-08T13:25:37;5.97;;;4.25;;
60169;SDS011;46042;49.444;6.862;2023-05-08T13:28:05;4.93;;;4.10;;
60169;SDS011;46042;49.444;6.862;2023-05-08T13:30:33;8.13;;;4.70;;
60169;SDS011;46042;49.444;6.862;2023-05-08T13:33:01;6.25;;;4.65;;
60169;SDS011;46042;49.444;6.862;2023-05-08T13:35:28;9.40;;;4.78;;
60169;SDS011;46042;49.444;6.862;2023-05-08T13:37:55;14.65;;;5.68;;
60169;SDS011;46042;49.444;6.862;2023-05-08T13:40:23;9.82;;;5.90;;
60169;SDS011;46042;49.444;6.862;2023-05-08T13:42:50;14.88;;;5.70;;
60169;SDS011;46042;49.444;6.862;2023-05-08T13:45:17;10.52;;;5.75;;
60169;SDS011;46042;49.444;6.862;2023-05-08T13:47:44;12.82;;;6.28;;
60169;SDS011;46042;49.444;6.862;2023-05-08T13:50:14;13.18;;;6.13;;
60169;SDS011;46042;49.444;6.862;2023-05-08T13:52:42;12.35;;;5.68;;
60169;SDS011;46042;49.444;6.862;2023-05-08T13:55:10;16.02;;;5.75;;
60169;SDS011;46042;49.444;6.862;2023-05-08T14:00:11;18.33;;;6.57;;
60169;SDS011;46042;49.444;6.862;2023-05-08T14:02:38;19.48;;;7.30;;
60169;SDS011;46042;49.444;6.862;2023-05-08T14:05:05;12.85;;;6.32;;
60169;SDS011;46042;49.444;6.862;2023-05-08T14:07:34;16.50;;;6.18;;
60169;SDS011;46042;49.444;6.862;2023-05-08T14:10:01;12.50;;;6.30;;
60169;SDS011;46042;49.444;6.862;2023-05-08T14:12:28;23.45;;;6.45;;
60169;SDS011;46042;49.444;6.862;2023-05-08T14:14:55;14.00;;;6.60;;
60169;SDS011;46042;49.444;6.862;2023-05-08T14:17:22;9.98;;;6.38;;
60169;SDS011;46042;49.444;6.862;2023-05-08T14:19:48;9.73;;;5.53;;
60169;SDS011;46042;49.444;6.862;2023-05-08T14:22:15;10.05;;;5.95;;
60169;SDS011;46042;49.444;6.862;2023-05-08T14:24:42;14.52;;;6.20;;
60169;SDS011;46042;49.444;6.862;2023-05-08T14:27:09;11.98;;;5.95;;
60169;SDS011;46042;49.444;6.862;2023-05-08T14:29:36;14.75;;;6.35;;
60169;SDS011;46042;49.444;6.862;2023-05-08T14:32:03;18.02;;;6.85;;
60169;SDS011;46042;49.444;6.862;2023-05-08T14:34:30;12.32;;;6.63;;
60169;SDS011;46042;49.444;6.862;2023-05-08T14:36:57;16.55;;;7.00;;
60169;SDS011;46042;49.444;6.862;2023-05-08T14:39:23;13.43;;;6.05;;
60169;SDS011;46042;49.444;6.862;2023-05-08T14:41:50;13.18;;;5.75;;
60169;SDS011;46042;49.444;6.862;2023-05-08T14:44:37;11.32;;;6.55;;
60169;SDS011;46042;49.444;6.862;2023-05-08T14:47:03;9.88;;;6.30;;
60169;SDS011;46042;49.444;6.862;2023-05-08T14:49:30;8.82;;;6.05;;
60169;SDS011;46042;49.444;6.862;2023-05-08T14:52:04;9.05;;;5.47;;
60169;SDS011;46042;49.444;6.862;2023-05-08T14:54:33;15.70;;;5.93;;
60169;SDS011;46042;49.444;6.862;2023-05-08T14:57:00;12.50;;;5.95;;
60169;SDS011;46042;49.444;6.862;2023-05-08T14:59:27;7.07;;;5.45;;
60169;SDS011;46042;49.444;6.862;2023-05-08T15:01:54;8.88;;;5.88;;
60169;SDS011;46042;49.444;6.862;2023-05-08T15:04:20;12.40;;;5.70;;
60169;SDS011;46042;49.444;6.862;2023-05-08T15:06:47;9.18;;;6.22;;
60169;SDS011;46042;49.444;6.862;2023-05-08T15:09:14;13.63;;;6.68;;
60169;SDS011;46042;49.444;6.862;2023-05-08T15:11:42;9.82;;;6.30;;
60169;SDS011;46042;49.444;6.862;2023-05-08T15:14:09;11.13;;;6.03;;
60169;SDS011;46042;49.444;6.862;2023-05-08T15:16:35;9.45;;;5.93;;
60169;SDS011;46042;49.444;6.862;2023-05-08T15:19:02;10.13;;;6.20;;
60169;SDS011;46042;49.444;6.862;2023-05-08T15:21:29;8.38;;;5.75;;
60169;SDS011;46042;49.444;6.862;2023-05-08T15:23:56;9.98;;;5.97;;
60169;SDS011;46042;49.444;6.862;2023-05-08T15:26:23;7.60;;;5.00;;
60169;SDS011;46042;49.444;6.862;2023-05-08T15:28:49;7.72;;;5.45;;
60169;SDS011;46042;49.444;6.862;2023-05-08T15:31:16;15.90;;;6.38;;
60169;SDS011;46042;49.444;6.862;2023-05-08T15:33:43;9.63;;;6.00;;
60169;SDS011;46042;49.444;6.862;2023-05-08T15:36:11;10.40;;;5.72;;
60169;SDS011;46042;49.444;6.862;2023-05-08T15:38:39;12.00;;;6.25;;
60169;SDS011;46042;49.444;6.862;2023-05-08T15:41:06;9.68;;;5.63;;
60169;SDS011;46042;49.444;6.862;2023-05-08T15:43:39;12.82;;;6.07;;
60169;SDS011;46042;49.444;6.862;2023-05-08T15:46:06;15.40;;;6.35;;
60169;SDS011;46042;49.444;6.862;2023-05-08T15:48:32;9.20;;;6.82;;
60169;SDS011;46042;49.444;6.862;2023-05-08T15:50:59;8.80;;;6.55;;
60169;SDS011;46042;49.444;6.862;2023-05-08T15:53:26;11.18;;;6.55;;
60169;SDS011;46042;49.444;6.862;2023-05-08T15:55:53;9.80;;;6.20;;